sensor_id;sensor_type;location;lat;lon;timestamp;P1;durP1;ratioP1;P2;durP2;ratioP2
7080;SDS011;3582;51.506;11.948;2023-03-01T00:01:05;23.35;;;16.48;;
7080;SDS011;3582;51.506;11.948;2023-03-01T00:03:32;26.38;;;16.52;;
7080;SDS011;3582;51.506;11.948;2023-03-01T00:05:58;22.60;;;17.27;;
7080;SDS011;3582;51.506;11.948;2023-03-01T00:08:24;23.27;;;16.10;;
7080;SDS011;3582;51.506;11.948;2023-03-01T00:10:59;25.95;;;17.60;;
7080;SDS011;3582;51.506;11.948;2023-03-01T00:13:25;24.75;;;15.70;;
7080;SDS011;3582;51.506;11.948;2023-03-01T00:15:51;21.10;;;15.57;;
7080;SDS011;3582;51.506;11.948;2023-03-01T00:18:17;23.37;;;15.70;;
7080;SDS011;3582;51.506;11.948;2023-03-01T00:20:49;28.63;;;16.17;;
7080;SDS011;3582;51.506;11.948;2023-03-01T00:23:15;20.85;;;15.10;;
7080;SDS011;3582;51.506;11.948;2023-03-01T00:25:41;30.03;;;17.60;;
7080;SDS011;3582;51.506;11.948;2023-03-01T00:28:07;29.23;;;18.65;;
7080;SDS011;3582;51.506;11.948;2023-03-01T00:30:33;18.70;;;14.47;;
7080;SDS011;3582;51.506;11.948;2023-03-01T00:32:59;23.67;;;14.73;;
7080;SDS011;3582;51.506;11.948;2023-03-01T00:35:25;14.97;;;11.93;;
7080;SDS011;3582;51.506;11.948;2023-03-01T00:37:51;24.92;;;15.73;;
7080;SDS011;3582;51.506;11.948;2023-03-01T00:40:23;20.48;;;14.77;;
7080;SDS011;3582;51.506;11.948;2023-03-01T00:42:49;20.10;;;15.05;;
7080;SDS011;3582;51.506;11.948;2023-03-01T00:45:15;27.63;;;16.50;;
7080;SDS011;3582;51.506;11.948;2023-03-01T00:47:41;21.58;;;15.40;;
7080;SDS011;3582;51.506;11.948;2023-03-01T00:50:07;28.77;;;18.97;;
7080;SDS011;3582;51.506;11.948;2023-03-01T00:52:33;25.20;;;16.17;;
7080;SDS011;3582;51.506;11.948;2023-03-01T00:54:59;21.50;;;16.87;;
7080;SDS011;3582;51.506;11.948;2023-03-01T00:57:25;24.02;;;16.58;;
7080;SDS011;3582;51.506;11.948;2023-03-01T00:59:51;32.90;;;17.30;;
7080;SDS011;3582;51.506;11.948;2023-03-01T01:02:17;27.60;;;15.73;;
7080;SDS011;3582;51.506;11.948;2023-03-01T01:04:43;33.88;;;18.15;;
7080;SDS011;3582;51.506;11.948;2023-03-01T01:07:09;24.63;;;16.83;;
7080;SDS011;3582;51.506;11.948;2023-03-01T01:09:35;29.67;;;18.48;;
7080;SDS011;3582;51.506;11.948;2023-03-01T01:12:01;24.05;;;15.88;;
7080;SDS011;3582;51.506;11.948;2023-03-01T01:14:28;26.08;;;16.45;;
7080;SDS011;3582;51.506;11.948;2023-03-01T01:16:54;22.70;;;16.40;;
7080;SDS011;3582;51.506;11.948;2023-03-01T01:19:20;20.98;;;15.70;;
7080;SDS011;3582;51.506;11.948;2023-03-01T01:21:46;30.63;;;16.20;;
7080;SDS011;3582;51.506;11.948;2023-03-01T01:24:13;24.23;;;13.80;;
7080;SDS011;3582;51.506;11.948;2023-03-01T01:26:39;24.02;;;15.02;;
7080;SDS011;3582;51.506;11.948;2023-03-01T01:29:05;18.80;;;15.00;;
7080;SDS011;3582;51.506;11.948;2023-03-01T01:31:32;23.30;;;12.07;;
7080;SDS011;3582;51.506;11.948;2023-03-01T01:33:59;24.27;;;13.43;;
7080;SDS011;3582;51.506;11.948;2023-03-01T01:36:25;25.50;;;14.77;;
7080;SDS011;3582;51.506;11.948;2023-03-01T01:38:51;26.90;;;15.63;;
7080;SDS011;3582;51.506;11.948;2023-03-01T01:41:18;27.88;;;18.67;;
7080;SDS011;3582;51.506;11.948;2023-03-01T01:43:49;29.35;;;19.70;;
7080;SDS011;3582;51.506;11.948;2023-03-01T01:46:21;31.38;;;19.10;;
7080;SDS011;3582;51.506;11.948;2023-03-01T01:48:55;20.75;;;16.73;;
7080;SDS011;3582;51.506;11.948;2023-03-01T01:51:24;17.50;;;14.55;;
7080;SDS011;3582;51.506;11.948;2023-03-01T01:53:53;20.45;;;15.05;;
7080;SDS011;3582;51.506;11.948;2023-03-01T01:56:21;23.95;;;15.35;;
7080;SDS011;3582;51.506;11.948;2023-03-01T01:58:48;25.73;;;15.88;;
7080;SDS011;3582;51.506;11.948;2023-03-01T02:01:15;20.33;;;15.93;;
7080;SDS011;3582;51.506;11.948;2023-03-01T02:03:41;20.67;;;15.73;;
7080;SDS011;3582;51.506;11.948;2023-03-01T02:08:47;22.63;;;16.00;;
7080;SDS011;3582;51.506;11.948;2023-03-01T02:11:14;22.73;;;15.80;;
7080;SDS011;3582;51.506;11.948;2023-03-01T02:13:40;22.23;;;16.30;;
7080;SDS011;3582;51.506;11.948;2023-03-01T02:16:11;22.05;;;16.52;;
7080;SDS011;3582;51.506;11.948;2023-03-01T02:18:38;21.52;;;16.80;;
7080;SDS011;3582;51.506;11.948;2023-03-01T02:21:08;22.70;;;15.68;;
7080;SDS011;3582;51.506;11.948;2023-03-01T02:23:37;20.73;;;14.18;;
7080;SDS011;3582;51.506;11.948;2023-03-01T02:26:08;19.15;;;14.57;;
7080;SDS011;3582;51.506;11.948;2023-03-01T02:28:38;24.63;;;15.65;;
7080;SDS011;3582;51.506;11.948;2023-03-01T02:31:07;19.20;;;14.80;;
7080;SDS011;3582;51.506;11.948;2023-03-01T02:33:52;20.17;;;14.90;;
7080;SDS011;3582;51.506;11.948;2023-03-01T02:36:19;24.05;;;16.67;;
7080;SDS011;3582;51.506;11.948;2023-03-01T02:38:46;22.85;;;15.98;;
7080;SDS011;3582;51.506;11.948;2023-03-01T02:41:14;23.98;;;16.48;;
7080;SDS011;3582;51.506;11.948;2023-03-01T02:43:41;22.10;;;15.18;;
7080;SDS011;3582;51.506;11.948;2023-03-01T02:46:12;24.35;;;15.85;;
7080;SDS011;3582;51.506;11.948;2023-03-01T02:48:40;20.25;;;13.63;;
7080;SDS011;3582;51.506;11.948;2023-03-01T02:51:12;23.80;;;16.45;;
7080;SDS011;3582;51.506;11.948;2023-03-01T02:56:27;22.55;;;14.43;;
7080;SDS011;3582;51.506;11.948;2023-03-01T02:58:54;15.75;;;12.88;;
7080;SDS011;3582;51.506;11.948;2023-03-01T03:01:24;23.90;;;15.95;;
7080;SDS011;3582;51.506;11.948;2023-03-01T03:04:09;20.60;;;14.60;;
7080;SDS011;3582;51.506;11.948;2023-03-01T03:06:36;20.38;;;14.10;;
7080;SDS011;3582;51.506;11.948;2023-03-01T03:09:02;22.40;;;14.65;;
7080;SDS011;3582;51.506;11.948;2023-03-01T03:11:28;21.40;;;14.68;;
7080;SDS011;3582;51.506;11.948;2023-03-01T03:13:55;23.90;;;15.43;;
7080;SDS011;3582;51.506;11.948;2023-03-01T03:16:22;21.70;;;15.52;;
7080;SDS011;3582;51.506;11.948;2023-03-01T03:18:49;22.30;;;15.13;;
7080;SDS011;3582;51.506;11.948;2023-03-01T03:21:15;28.53;;;15.97;;
7080;SDS011;3582;51.506;11.948;2023-03-01T03:23:41;25.80;;;16.23;;
7080;SDS011;3582;51.506;11.948;2023-03-01T03:26:07;21.50;;;15.00;;
7080;SDS011;3582;51.506;11.948;2023-03-01T03:28:34;23.83;;;15.90;;
7080;SDS011;3582;51.506;11.948;2023-03-01T03:31:00;25.33;;;13.93;;
7080;SDS011;3582;51.506;11.948;2023-03-01T03:33:30;25.65;;;17.95;;
7080;SDS011;3582;51.506;11.948;2023-03-01T03:35:56;20.65;;;14.35;;
7080;SDS011;3582;51.506;11.948;2023-03-01T03:38:21;22.67;;;14.73;;
7080;SDS011;3582;51.506;11.948;2023-03-01T03:43:14;20.83;;;14.30;;
7080;SDS011;3582;51.506;11.948;2023-03-01T03:45:41;26.08;;;16.85;;
7080;SDS011;3582;51.506;11.948;2023-03-01T03:48:07;27.02;;;15.95;;
7080;SDS011;3582;51.506;11.948;2023-03-01T03:50:34;23.70;;;14.75;;
7080;SDS011;3582;51.506;11.948;2023-03-01T03:53:01;24.48;;;14.60;;
7080;SDS011;3582;51.506;11.948;2023-03-01T03:55:27;21.85;;;13.50;;
7080;SDS011;3582;51.506;11.948;2023-03-01T03:57:56;22.10;;;14.88;;
7080;SDS011;3582;51.506;11.948;2023-03-01T04:00:22;25.02;;;14.60;;
7080;SDS011;3582;51.506;11.948;2023-03-01T04:02:48;23.67;;;13.82;;
7080;SDS011;3582;51.506;11.948;2023-03-01T04:05:15;36.90;;;16.27;;
7080;SDS011;3582;51.506;11.948;2023-03-01T04:07:42;19.08;;;13.10;;
7080;SDS011;3582;51.506;11.948;2023-03-01T04:10:09;21.80;;;13.98;;
7080;SDS011;3582;51.506;11.948;2023-03-01T04:12:36;26.13;;;15.02;;
7080;SDS011;3582;51.506;11.948;2023-03-01T04:15:06;19.92;;;13.75;;
7080;SDS011;3582;51.506;11.948;2023-03-01T04:17:42;20.55;;;13.45;;
7080;SDS011;3582;51.506;11.948;2023-03-01T04:20:12;17.90;;;11.77;;
7080;SDS011;3582;51.506;11.948;2023-03-01T04:22:38;19.52;;;13.68;;
7080;SDS011;3582;51.506;11.948;2023-03-01T04:25:05;19.88;;;13.85;;
7080;SDS011;3582;51.506;11.948;2023-03-01T04:27:33;16.92;;;12.70;;
7080;SDS011;3582;51.506;11.948;2023-03-01T04:29:59;19.40;;;12.93;;
7080;SDS011;3582;51.506;11.948;2023-03-01T04:32:25;19.20;;;13.70;;
7080;SDS011;3582;51.506;11.948;2023-03-01T04:34:50;17.60;;;12.17;;
7080;SDS011;3582;51.506;11.948;2023-03-01T04:37:16;21.87;;;12.70;;
7080;SDS011;3582;51.506;11.948;2023-03-01T04:39:42;21.40;;;14.20;;
7080;SDS011;3582;51.506;11.948;2023-03-01T04:42:12;25.35;;;15.00;;
7080;SDS011;3582;51.506;11.948;2023-03-01T04:44:38;19.47;;;13.97;;
7080;SDS011;3582;51.506;11.948;2023-03-01T04:47:04;24.87;;;14.60;;
7080;SDS011;3582;51.506;11.948;2023-03-01T04:49:30;15.50;;;13.57;;
7080;SDS011;3582;51.506;11.948;2023-03-01T04:51:56;21.00;;;12.05;;
7080;SDS011;3582;51.506;11.948;2023-03-01T04:54:27;20.63;;;13.00;;
7080;SDS011;3582;51.506;11.948;2023-03-01T04:56:53;18.05;;;12.73;;
7080;SDS011;3582;51.506;11.948;2023-03-01T04:59:19;16.10;;;12.23;;
7080;SDS011;3582;51.506;11.948;2023-03-01T05:01:47;17.88;;;11.85;;
7080;SDS011;3582;51.506;11.948;2023-03-01T05:04:13;14.98;;;11.57;;
7080;SDS011;3582;51.506;11.948;2023-03-01T05:06:39;22.07;;;13.00;;
7080;SDS011;3582;51.506;11.948;2023-03-01T05:09:05;18.03;;;13.20;;
7080;SDS011;3582;51.506;11.948;2023-03-01T05:11:31;20.10;;;13.50;;
7080;SDS011;3582;51.506;11.948;2023-03-01T05:14:00;24.13;;;11.27;;
7080;SDS011;3582;51.506;11.948;2023-03-01T05:16:27;19.00;;;12.73;;
7080;SDS011;3582;51.506;11.948;2023-03-01T05:18:55;23.88;;;15.68;;
7080;SDS011;3582;51.506;11.948;2023-03-01T05:21:21;20.35;;;12.85;;
7080;SDS011;3582;51.506;11.948;2023-03-01T05:23:47;20.70;;;12.60;;
7080;SDS011;3582;51.506;11.948;2023-03-01T05:26:14;16.70;;;11.77;;
7080;SDS011;3582;51.506;11.948;2023-03-01T05:28:40;15.55;;;10.80;;
7080;SDS011;3582;51.506;11.948;2023-03-01T05:31:06;17.47;;;12.83;;
7080;SDS011;3582;51.506;11.948;2023-03-01T05:33:35;20.25;;;11.93;;
7080;SDS011;3582;51.506;11.948;2023-03-01T05:36:01;22.25;;;12.10;;
7080;SDS011;3582;51.506;11.948;2023-03-01T05:38:27;20.93;;;13.40;;
7080;SDS011;3582;51.506;11.948;2023-03-01T05:40:53;19.40;;;12.77;;
7080;SDS011;3582;51.506;11.948;2023-03-01T05:43:19;25.97;;;13.27;;
7080;SDS011;3582;51.506;11.948;2023-03-01T05:45:44;21.17;;;13.70;;
7080;SDS011;3582;51.506;11.948;2023-03-01T05:48:10;20.98;;;13.88;;
7080;SDS011;3582;51.506;11.948;2023-03-01T05:50:39;20.92;;;13.55;;
7080;SDS011;3582;51.506;11.948;2023-03-01T05:53:06;18.05;;;13.23;;
7080;SDS011;3582;51.506;11.948;2023-03-01T05:55:33;24.58;;;14.45;;
7080;SDS011;3582;51.506;11.948;2023-03-01T05:58:03;17.50;;;11.88;;
7080;SDS011;3582;51.506;11.948;2023-03-01T06:00:29;21.17;;;13.10;;
7080;SDS011;3582;51.506;11.948;2023-03-01T06:02:56;15.77;;;11.88;;
7080;SDS011;3582;51.506;11.948;2023-03-01T06:05:22;27.35;;;15.77;;
7080;SDS011;3582;51.506;11.948;2023-03-01T06:07:48;25.50;;;14.55;;
7080;SDS011;3582;51.506;11.948;2023-03-01T06:10:15;17.35;;;13.15;;
7080;SDS011;3582;51.506;11.948;2023-03-01T06:12:41;20.70;;;12.68;;
7080;SDS011;3582;51.506;11.948;2023-03-01T06:15:09;17.73;;;12.57;;
7080;SDS011;3582;51.506;11.948;2023-03-01T06:17:35;24.95;;;14.98;;
7080;SDS011;3582;51.506;11.948;2023-03-01T06:20:03;22.17;;;13.50;;
7080;SDS011;3582;51.506;11.948;2023-03-01T06:22:29;25.45;;;13.80;;
7080;SDS011;3582;51.506;11.948;2023-03-01T06:24:55;23.10;;;13.77;;
7080;SDS011;3582;51.506;11.948;2023-03-01T06:27:21;28.55;;;14.95;;
7080;SDS011;3582;51.506;11.948;2023-03-01T06:29:47;33.92;;;15.45;;
7080;SDS011;3582;51.506;11.948;2023-03-01T06:32:13;19.92;;;14.70;;
7080;SDS011;3582;51.506;11.948;2023-03-01T06:34:39;24.55;;;13.18;;
7080;SDS011;3582;51.506;11.948;2023-03-01T06:37:06;27.10;;;13.53;;
7080;SDS011;3582;51.506;11.948;2023-03-01T06:39:32;20.17;;;14.30;;
7080;SDS011;3582;51.506;11.948;2023-03-01T06:41:58;17.55;;;13.73;;
7080;SDS011;3582;51.506;11.948;2023-03-01T06:44:24;22.50;;;12.90;;
7080;SDS011;3582;51.506;11.948;2023-03-01T06:46:50;22.07;;;13.37;;
7080;SDS011;3582;51.506;11.948;2023-03-01T06:49:16;29.00;;;15.40;;
7080;SDS011;3582;51.506;11.948;2023-03-01T06:51:42;28.35;;;14.70;;
7080;SDS011;3582;51.506;11.948;2023-03-01T06:54:09;22.90;;;13.95;;
7080;SDS011;3582;51.506;11.948;2023-03-01T06:56:35;27.23;;;14.38;;
7080;SDS011;3582;51.506;11.948;2023-03-01T06:59:01;40.30;;;14.63;;
7080;SDS011;3582;51.506;11.948;2023-03-01T07:01:27;18.52;;;12.43;;
7080;SDS011;3582;51.506;11.948;2023-03-01T07:03:53;21.20;;;14.05;;
7080;SDS011;3582;51.506;11.948;2023-03-01T07:06:19;17.80;;;11.63;;
7080;SDS011;3582;51.506;11.948;2023-03-01T07:08:45;14.77;;;12.10;;
7080;SDS011;3582;51.506;11.948;2023-03-01T07:11:12;26.25;;;14.48;;
7080;SDS011;3582;51.506;11.948;2023-03-01T07:13:38;17.75;;;12.80;;
7080;SDS011;3582;51.506;11.948;2023-03-01T07:16:04;20.75;;;13.27;;
7080;SDS011;3582;51.506;11.948;2023-03-01T07:18:30;18.05;;;12.52;;
7080;SDS011;3582;51.506;11.948;2023-03-01T07:20:56;18.98;;;12.50;;
7080;SDS011;3582;51.506;11.948;2023-03-01T07:23:22;17.20;;;15.07;;
7080;SDS011;3582;51.506;11.948;2023-03-01T07:25:51;18.33;;;13.00;;
7080;SDS011;3582;51.506;11.948;2023-03-01T07:28:18;34.90;;;15.05;;
7080;SDS011;3582;51.506;11.948;2023-03-01T07:30:44;15.52;;;12.73;;
7080;SDS011;3582;51.506;11.948;2023-03-01T07:33:10;24.20;;;15.02;;
7080;SDS011;3582;51.506;11.948;2023-03-01T07:35:36;26.40;;;13.70;;
7080;SDS011;3582;51.506;11.948;2023-03-01T07:38:01;20.40;;;13.40;;
7080;SDS011;3582;51.506;11.948;2023-03-01T07:40:27;20.07;;;15.00;;
7080;SDS011;3582;51.506;11.948;2023-03-01T07:42:57;19.00;;;12.80;;
7080;SDS011;3582;51.506;11.948;2023-03-01T07:45:23;22.75;;;14.82;;
7080;SDS011;3582;51.506;11.948;2023-03-01T07:47:50;27.33;;;13.95;;
7080;SDS011;3582;51.506;11.948;2023-03-01T07:50:16;21.50;;;12.57;;
7080;SDS011;3582;51.506;11.948;2023-03-01T07:52:44;25.48;;;13.90;;
7080;SDS011;3582;51.506;11.948;2023-03-01T07:55:10;21.30;;;12.93;;
7080;SDS011;3582;51.506;11.948;2023-03-01T07:57:36;16.57;;;12.43;;
7080;SDS011;3582;51.506;11.948;2023-03-01T08:00:02;17.03;;;13.80;;
7080;SDS011;3582;51.506;11.948;2023-03-01T08:02:28;26.40;;;14.80;;
7080;SDS011;3582;51.506;11.948;2023-03-01T08:04:54;25.27;;;16.50;;
7080;SDS011;3582;51.506;11.948;2023-03-01T08:07:20;53.40;;;21.90;;
7080;SDS011;3582;51.506;11.948;2023-03-01T08:09:46;22.40;;;14.40;;
7080;SDS011;3582;51.506;11.948;2023-03-01T08:12:12;27.03;;;16.07;;
7080;SDS011;3582;51.506;11.948;2023-03-01T08:14:38;21.03;;;15.07;;
7080;SDS011;3582;51.506;11.948;2023-03-01T08:17:04;21.63;;;14.73;;
7080;SDS011;3582;51.506;11.948;2023-03-01T08:19:30;23.40;;;14.53;;
7080;SDS011;3582;51.506;11.948;2023-03-01T08:21:56;34.22;;;16.77;;
7080;SDS011;3582;51.506;11.948;2023-03-01T08:24:23;25.10;;;15.93;;
7080;SDS011;3582;51.506;11.948;2023-03-01T08:26:49;29.27;;;16.13;;
7080;SDS011;3582;51.506;11.948;2023-03-01T08:29:14;26.00;;;15.57;;
7080;SDS011;3582;51.506;11.948;2023-03-01T08:31:40;23.13;;;15.83;;
7080;SDS011;3582;51.506;11.948;2023-03-01T08:34:08;23.02;;;13.88;;
7080;SDS011;3582;51.506;11.948;2023-03-01T08:36:38;16.55;;;12.50;;
7080;SDS011;3582;51.506;11.948;2023-03-01T08:39:05;26.88;;;15.32;;
7080;SDS011;3582;51.506;11.948;2023-03-01T08:41:32;18.75;;;14.68;;
7080;SDS011;3582;51.506;11.948;2023-03-01T08:43:58;26.67;;;13.55;;
7080;SDS011;3582;51.506;11.948;2023-03-01T08:46:25;19.60;;;14.10;;
7080;SDS011;3582;51.506;11.948;2023-03-01T08:48:51;25.15;;;14.77;;
7080;SDS011;3582;51.506;11.948;2023-03-01T08:51:17;26.43;;;15.50;;
7080;SDS011;3582;51.506;11.948;2023-03-01T08:53:43;31.75;;;18.50;;
7080;SDS011;3582;51.506;11.948;2023-03-01T08:56:09;16.63;;;13.35;;
7080;SDS011;3582;51.506;11.948;2023-03-01T08:58:35;20.95;;;14.75;;
7080;SDS011;3582;51.506;11.948;2023-03-01T09:01:06;23.90;;;14.30;;
7080;SDS011;3582;51.506;11.948;2023-03-01T09:03:32;28.00;;;15.60;;
7080;SDS011;3582;51.506;11.948;2023-03-01T09:06:01;33.00;;;13.87;;
7080;SDS011;3582;51.506;11.948;2023-03-01T09:08:28;24.98;;;15.18;;
7080;SDS011;3582;51.506;11.948;2023-03-01T09:10:54;16.67;;;12.52;;
7080;SDS011;3582;51.506;11.948;2023-03-01T09:13:20;23.67;;;15.32;;
7080;SDS011;3582;51.506;11.948;2023-03-01T09:15:48;24.33;;;14.20;;
7080;SDS011;3582;51.506;11.948;2023-03-01T09:18:14;16.73;;;12.47;;
7080;SDS011;3582;51.506;11.948;2023-03-01T09:20:40;21.30;;;14.53;;
7080;SDS011;3582;51.506;11.948;2023-03-01T09:23:06;19.95;;;12.73;;
7080;SDS011;3582;51.506;11.948;2023-03-01T09:25:33;36.53;;;15.37;;
7080;SDS011;3582;51.506;11.948;2023-03-01T09:27:59;21.83;;;15.63;;
7080;SDS011;3582;51.506;11.948;2023-03-01T09:30:25;23.02;;;15.05;;
7080;SDS011;3582;51.506;11.948;2023-03-01T09:32:51;20.70;;;13.90;;
7080;SDS011;3582;51.506;11.948;2023-03-01T09:35:17;22.00;;;15.10;;
7080;SDS011;3582;51.506;11.948;2023-03-01T09:37:45;20.23;;;13.90;;
7080;SDS011;3582;51.506;11.948;2023-03-01T09:40:15;16.33;;;12.27;;
7080;SDS011;3582;51.506;11.948;2023-03-01T09:42:49;16.17;;;13.68;;
7080;SDS011;3582;51.506;11.948;2023-03-01T09:45:28;21.15;;;14.82;;
7080;SDS011;3582;51.506;11.948;2023-03-01T09:47:55;21.40;;;13.68;;
7080;SDS011;3582;51.506;11.948;2023-03-01T09:50:21;29.10;;;17.65;;
7080;SDS011;3582;51.506;11.948;2023-03-01T09:52:50;24.65;;;14.48;;
7080;SDS011;3582;51.506;11.948;2023-03-01T09:55:31;18.33;;;13.50;;
7080;SDS011;3582;51.506;11.948;2023-03-01T09:58:00;28.38;;;17.30;;
7080;SDS011;3582;51.506;11.948;2023-03-01T10:00:33;18.65;;;13.25;;
7080;SDS011;3582;51.506;11.948;2023-03-01T10:05:47;26.02;;;15.07;;
7080;SDS011;3582;51.506;11.948;2023-03-01T10:10:47;17.00;;;13.68;;
7080;SDS011;3582;51.506;11.948;2023-03-01T10:13:15;15.98;;;12.70;;
7080;SDS011;3582;51.506;11.948;2023-03-01T10:15:44;27.27;;;14.57;;
7080;SDS011;3582;51.506;11.948;2023-03-01T10:18:14;18.42;;;13.95;;
7080;SDS011;3582;51.506;11.948;2023-03-01T10:20:44;18.08;;;14.57;;
7080;SDS011;3582;51.506;11.948;2023-03-01T10:23:12;22.02;;;15.60;;
7080;SDS011;3582;51.506;11.948;2023-03-01T10:28:16;15.30;;;12.70;;
7080;SDS011;3582;51.506;11.948;2023-03-01T10:30:42;16.73;;;13.57;;
7080;SDS011;3582;51.506;11.948;2023-03-01T10:33:22;16.17;;;12.20;;
7080;SDS011;3582;51.506;11.948;2023-03-01T10:35:49;24.75;;;14.38;;
7080;SDS011;3582;51.506;11.948;2023-03-01T10:38:15;19.52;;;14.18;;
7080;SDS011;3582;51.506;11.948;2023-03-01T10:41:06;16.75;;;14.63;;
7080;SDS011;3582;51.506;11.948;2023-03-01T10:43:40;20.13;;;13.88;;
7080;SDS011;3582;51.506;11.948;2023-03-01T10:46:28;20.75;;;13.95;;
7080;SDS011;3582;51.506;11.948;2023-03-01T10:49:05;19.65;;;13.20;;
7080;SDS011;3582;51.506;11.948;2023-03-01T10:51:31;17.48;;;13.82;;
7080;SDS011;3582;51.506;11.948;2023-03-01T10:53:57;28.95;;;15.82;;
7080;SDS011;3582;51.506;11.948;2023-03-01T10:56:23;17.97;;;13.43;;
7080;SDS011;3582;51.506;11.948;2023-03-01T10:58:57;28.58;;;13.60;;
7080;SDS011;3582;51.506;11.948;2023-03-01T11:01:33;21.15;;;14.25;;
7080;SDS011;3582;51.506;11.948;2023-03-01T11:06:29;14.80;;;11.27;;
7080;SDS011;3582;51.506;11.948;2023-03-01T11:08:55;24.53;;;12.23;;
7080;SDS011;3582;51.506;11.948;2023-03-01T11:11:31;12.20;;;10.25;;
7080;SDS011;3582;51.506;11.948;2023-03-01T11:16:24;18.40;;;11.87;;
7080;SDS011;3582;51.506;11.948;2023-03-01T11:19:03;14.55;;;10.30;;
7080;SDS011;3582;51.506;11.948;2023-03-01T11:21:30;31.08;;;12.85;;
7080;SDS011;3582;51.506;11.948;2023-03-01T11:23:57;12.30;;;10.82;;
7080;SDS011;3582;51.506;11.948;2023-03-01T11:26:24;13.73;;;11.73;;
7080;SDS011;3582;51.506;11.948;2023-03-01T11:28:51;12.82;;;10.23;;
7080;SDS011;3582;51.506;11.948;2023-03-01T11:31:19;13.05;;;10.80;;
7080;SDS011;3582;51.506;11.948;2023-03-01T11:33:59;15.27;;;11.30;;
7080;SDS011;3582;51.506;11.948;2023-03-01T11:36:30;12.30;;;10.00;;
7080;SDS011;3582;51.506;11.948;2023-03-01T11:39:02;20.00;;;11.48;;
7080;SDS011;3582;51.506;11.948;2023-03-01T11:41:30;12.68;;;10.60;;
7080;SDS011;3582;51.506;11.948;2023-03-01T11:44:19;14.90;;;10.00;;
7080;SDS011;3582;51.506;11.948;2023-03-01T11:49:28;18.40;;;10.10;;
7080;SDS011;3582;51.506;11.948;2023-03-01T11:52:16;11.82;;;9.00;;
7080;SDS011;3582;51.506;11.948;2023-03-01T11:54:48;12.13;;;9.48;;
7080;SDS011;3582;51.506;11.948;2023-03-01T12:05:46;9.32;;;7.78;;
7080;SDS011;3582;51.506;11.948;2023-03-01T12:08:18;9.85;;;8.85;;
7080;SDS011;3582;51.506;11.948;2023-03-01T12:15:39;11.27;;;8.60;;
7080;SDS011;3582;51.506;11.948;2023-03-01T12:21:09;9.00;;;6.60;;
7080;SDS011;3582;51.506;11.948;2023-03-01T12:26:31;9.40;;;8.32;;
7080;SDS011;3582;51.506;11.948;2023-03-01T12:31:50;11.02;;;8.23;;
7080;SDS011;3582;51.506;11.948;2023-03-01T12:34:42;8.80;;;7.90;;
7080;SDS011;3582;51.506;11.948;2023-03-01T12:37:21;8.85;;;7.95;;
7080;SDS011;3582;51.506;11.948;2023-03-01T12:48:13;15.90;;;9.90;;
7080;SDS011;3582;51.506;11.948;2023-03-01T12:50:43;10.48;;;7.78;;
7080;SDS011;3582;51.506;11.948;2023-03-01T12:53:17;9.05;;;6.60;;
7080;SDS011;3582;51.506;11.948;2023-03-01T12:55:45;11.67;;;7.73;;
7080;SDS011;3582;51.506;11.948;2023-03-01T12:58:20;23.10;;;10.30;;
7080;SDS011;3582;51.506;11.948;2023-03-01T13:06:08;11.87;;;8.80;;
7080;SDS011;3582;51.506;11.948;2023-03-01T13:08:41;18.35;;;7.55;;
7080;SDS011;3582;51.506;11.948;2023-03-01T13:11:18;12.52;;;8.30;;
7080;SDS011;3582;51.506;11.948;2023-03-01T13:13:45;8.18;;;7.38;;
7080;SDS011;3582;51.506;11.948;2023-03-01T13:21:40;9.70;;;7.13;;
7080;SDS011;3582;51.506;11.948;2023-03-01T13:24:26;9.33;;;7.53;;
7080;SDS011;3582;51.506;11.948;2023-03-01T13:27:25;9.97;;;8.00;;
7080;SDS011;3582;51.506;11.948;2023-03-01T13:29:48;11.30;;;8.07;;
7080;SDS011;3582;51.506;11.948;2023-03-01T13:32:27;16.48;;;11.80;;
7080;SDS011;3582;51.506;11.948;2023-03-01T13:35:02;15.88;;;8.82;;
7080;SDS011;3582;51.506;11.948;2023-03-01T13:37:33;8.52;;;7.72;;
7080;SDS011;3582;51.506;11.948;2023-03-01T13:40:02;8.23;;;7.15;;
7080;SDS011;3582;51.506;11.948;2023-03-01T13:42:37;10.38;;;7.40;;
7080;SDS011;3582;51.506;11.948;2023-03-01T13:45:48;9.38;;;7.85;;
7080;SDS011;3582;51.506;11.948;2023-03-01T13:47:54;13.77;;;8.20;;
7080;SDS011;3582;51.506;11.948;2023-03-01T13:50:23;11.75;;;7.60;;
7080;SDS011;3582;51.506;11.948;2023-03-01T13:52:50;16.58;;;8.35;;
7080;SDS011;3582;51.506;11.948;2023-03-01T13:55:19;15.18;;;9.20;;
7080;SDS011;3582;51.506;11.948;2023-03-01T13:57:47;10.30;;;7.13;;
7080;SDS011;3582;51.506;11.948;2023-03-01T14:00:25;7.82;;;6.65;;
7080;SDS011;3582;51.506;11.948;2023-03-01T14:03:01;9.73;;;6.13;;
7080;SDS011;3582;51.506;11.948;2023-03-01T14:05:28;9.80;;;7.35;;
7080;SDS011;3582;51.506;11.948;2023-03-01T14:07:54;21.50;;;10.15;;
7080;SDS011;3582;51.506;11.948;2023-03-01T14:10:20;10.43;;;6.70;;
7080;SDS011;3582;51.506;11.948;2023-03-01T14:12:51;11.02;;;7.55;;
7080;SDS011;3582;51.506;11.948;2023-03-01T14:15:29;8.80;;;6.68;;
7080;SDS011;3582;51.506;11.948;2023-03-01T14:18:04;6.80;;;6.15;;
7080;SDS011;3582;51.506;11.948;2023-03-01T14:20:37;9.45;;;7.10;;
7080;SDS011;3582;51.506;11.948;2023-03-01T14:23:08;10.52;;;5.32;;
7080;SDS011;3582;51.506;11.948;2023-03-01T14:25:36;9.45;;;5.80;;
7080;SDS011;3582;51.506;11.948;2023-03-01T14:28:10;8.85;;;6.18;;
7080;SDS011;3582;51.506;11.948;2023-03-01T14:30:43;9.95;;;6.25;;
7080;SDS011;3582;51.506;11.948;2023-03-01T14:33:25;8.90;;;6.65;;
7080;SDS011;3582;51.506;11.948;2023-03-01T14:35:53;11.00;;;5.55;;
7080;SDS011;3582;51.506;11.948;2023-03-01T14:38:23;11.85;;;5.55;;
7080;SDS011;3582;51.506;11.948;2023-03-01T14:40:54;10.85;;;6.57;;
7080;SDS011;3582;51.506;11.948;2023-03-01T14:43:22;10.60;;;6.30;;
7080;SDS011;3582;51.506;11.948;2023-03-01T14:45:50;8.82;;;5.47;;
7080;SDS011;3582;51.506;11.948;2023-03-01T14:48:16;7.10;;;6.40;;
7080;SDS011;3582;51.506;11.948;2023-03-01T14:50:43;8.75;;;5.93;;
7080;SDS011;3582;51.506;11.948;2023-03-01T14:53:31;5.75;;;5.15;;
7080;SDS011;3582;51.506;11.948;2023-03-01T14:55:59;5.60;;;5.15;;
7080;SDS011;3582;51.506;11.948;2023-03-01T14:58:27;9.82;;;5.80;;
7080;SDS011;3582;51.506;11.948;2023-03-01T15:00:54;7.68;;;5.13;;
7080;SDS011;3582;51.506;11.948;2023-03-01T15:03:24;8.60;;;5.38;;
7080;SDS011;3582;51.506;11.948;2023-03-01T15:05:51;7.40;;;5.40;;
7080;SDS011;3582;51.506;11.948;2023-03-01T15:08:18;7.00;;;5.95;;
7080;SDS011;3582;51.506;11.948;2023-03-01T15:10:55;7.97;;;5.70;;
7080;SDS011;3582;51.506;11.948;2023-03-01T15:13:22;5.72;;;4.78;;
7080;SDS011;3582;51.506;11.948;2023-03-01T15:15:49;8.20;;;6.10;;
7080;SDS011;3582;51.506;11.948;2023-03-01T15:20:42;8.00;;;5.27;;
7080;SDS011;3582;51.506;11.948;2023-03-01T15:23:19;8.52;;;6.15;;
7080;SDS011;3582;51.506;11.948;2023-03-01T15:25:46;9.30;;;5.60;;
7080;SDS011;3582;51.506;11.948;2023-03-01T15:28:17;6.53;;;5.43;;
7080;SDS011;3582;51.506;11.948;2023-03-01T15:30:43;8.52;;;6.30;;
7080;SDS011;3582;51.506;11.948;2023-03-01T15:33:16;11.30;;;7.10;;
7080;SDS011;3582;51.506;11.948;2023-03-01T15:35:46;8.20;;;7.35;;
7080;SDS011;3582;51.506;11.948;2023-03-01T15:38:32;8.15;;;7.00;;
7080;SDS011;3582;51.506;11.948;2023-03-01T15:41:00;9.10;;;5.85;;
7080;SDS011;3582;51.506;11.948;2023-03-01T15:43:43;10.52;;;7.10;;
7080;SDS011;3582;51.506;11.948;2023-03-01T15:46:16;14.07;;;7.80;;
7080;SDS011;3582;51.506;11.948;2023-03-01T15:48:46;6.65;;;6.10;;
7080;SDS011;3582;51.506;11.948;2023-03-01T15:51:14;8.10;;;7.03;;
7080;SDS011;3582;51.506;11.948;2023-03-01T15:53:40;9.95;;;6.60;;